Terminal Aerodrome Forecast
Issued by NWS North Platte, NE

Home | Current Version | Previous Version | Graphics & Text | Print | Product List | Glossary On
Versions: 1 2 3 4 5 6 7 8 9 10 11 12 13 14 15 16 17 18 19 20 21
000
FTUS43 KLBF 021100
TAFVTN
TAF
KVTN 021138Z 0212/0312 22004KT P6SM SCT120 BKN200
     FM021600 17020G29KT P6SM SCT090 BKN150
     FM030400 18012G19KT 6SM -FZDZ BR BKN015 OVC040
     FM030600 24007KT 4SM -SN BR OVC007
     FM030900 35014G24KT 2SM -SN BR OVC004
      TEMPO 0309/0312 3/4SM -SN BR=

USA.gov is the U.S. government's official web portal to all federal, state and local government web resources and services.